sensor_id;sensor_type;location;lat;lon;timestamp;P1;durP1;ratioP1;P2;durP2;ratioP2
40537;SDS011;27925;41.874;12.526;2022-12-18T00:00:43;16.90;;;9.80;;
40537;SDS011;27925;41.874;12.526;2022-12-18T00:03:11;19.02;;;9.73;;
40537;SDS011;27925;41.874;12.526;2022-12-18T00:05:45;17.23;;;9.48;;
40537;SDS011;27925;41.874;12.526;2022-12-18T00:08:15;20.10;;;11.55;;
40537;SDS011;27925;41.874;12.526;2022-12-18T00:10:42;22.52;;;10.95;;
40537;SDS011;27925;41.874;12.526;2022-12-18T00:13:08;18.75;;;11.23;;
40537;SDS011;27925;41.874;12.526;2022-12-18T00:15:34;18.42;;;11.00;;
40537;SDS011;27925;41.874;12.526;2022-12-18T00:18:01;17.73;;;10.60;;
40537;SDS011;27925;41.874;12.526;2022-12-18T00:20:26;17.35;;;10.60;;
40537;SDS011;27925;41.874;12.526;2022-12-18T00:22:52;19.92;;;11.13;;
40537;SDS011;27925;41.874;12.526;2022-12-18T00:25:18;15.02;;;10.48;;
40537;SDS011;27925;41.874;12.526;2022-12-18T00:27:44;19.48;;;10.70;;
40537;SDS011;27925;41.874;12.526;2022-12-18T00:30:10;16.75;;;10.45;;
40537;SDS011;27925;41.874;12.526;2022-12-18T00:32:36;17.90;;;10.38;;
40537;SDS011;27925;41.874;12.526;2022-12-18T00:35:02;17.63;;;10.10;;
40537;SDS011;27925;41.874;12.526;2022-12-18T00:37:28;15.40;;;9.75;;
40537;SDS011;27925;41.874;12.526;2022-12-18T00:39:54;18.38;;;10.48;;
40537;SDS011;27925;41.874;12.526;2022-12-18T00:42:20;15.98;;;11.43;;
40537;SDS011;27925;41.874;12.526;2022-12-18T00:45:15;18.08;;;10.93;;
40537;SDS011;27925;41.874;12.526;2022-12-18T00:47:40;17.75;;;10.65;;
40537;SDS011;27925;41.874;12.526;2022-12-18T00:50:06;17.77;;;10.77;;
40537;SDS011;27925;41.874;12.526;2022-12-18T00:52:32;14.82;;;10.07;;
40537;SDS011;27925;41.874;12.526;2022-12-18T00:54:58;19.30;;;10.77;;
40537;SDS011;27925;41.874;12.526;2022-12-18T00:57:24;16.45;;;10.63;;
40537;SDS011;27925;41.874;12.526;2022-12-18T00:59:49;20.15;;;10.80;;
40537;SDS011;27925;41.874;12.526;2022-12-18T01:02:15;19.58;;;11.32;;
40537;SDS011;27925;41.874;12.526;2022-12-18T01:04:40;16.15;;;10.65;;
40537;SDS011;27925;41.874;12.526;2022-12-18T01:07:06;20.25;;;10.65;;
40537;SDS011;27925;41.874;12.526;2022-12-18T01:09:32;18.23;;;10.98;;
40537;SDS011;27925;41.874;12.526;2022-12-18T01:11:57;17.90;;;10.73;;
40537;SDS011;27925;41.874;12.526;2022-12-18T01:14:23;13.57;;;9.73;;
40537;SDS011;27925;41.874;12.526;2022-12-18T01:16:49;18.60;;;10.70;;
40537;SDS011;27925;41.874;12.526;2022-12-18T01:19:15;18.83;;;11.13;;
40537;SDS011;27925;41.874;12.526;2022-12-18T01:21:40;18.88;;;10.55;;
40537;SDS011;27925;41.874;12.526;2022-12-18T01:24:06;20.60;;;10.93;;
40537;SDS011;27925;41.874;12.526;2022-12-18T01:26:32;17.52;;;10.63;;
40537;SDS011;27925;41.874;12.526;2022-12-18T01:28:58;17.23;;;10.60;;
40537;SDS011;27925;41.874;12.526;2022-12-18T01:31:28;14.75;;;10.38;;
40537;SDS011;27925;41.874;12.526;2022-12-18T01:33:55;18.45;;;11.90;;
40537;SDS011;27925;41.874;12.526;2022-12-18T01:36:22;17.85;;;11.68;;
40537;SDS011;27925;41.874;12.526;2022-12-18T01:38:52;20.20;;;11.88;;
40537;SDS011;27925;41.874;12.526;2022-12-18T01:41:20;18.50;;;11.63;;
40537;SDS011;27925;41.874;12.526;2022-12-18T01:47:17;19.23;;;12.15;;
40537;SDS011;27925;41.874;12.526;2022-12-18T01:50:07;19.60;;;12.45;;
40537;SDS011;27925;41.874;12.526;2022-12-18T01:52:38;18.65;;;13.00;;
40537;SDS011;27925;41.874;12.526;2022-12-18T01:55:06;20.70;;;13.35;;
40537;SDS011;27925;41.874;12.526;2022-12-18T01:57:33;18.58;;;12.60;;
40537;SDS011;27925;41.874;12.526;2022-12-18T02:00:00;22.05;;;13.02;;
40537;SDS011;27925;41.874;12.526;2022-12-18T02:02:29;20.15;;;13.55;;
40537;SDS011;27925;41.874;12.526;2022-12-18T02:04:55;17.25;;;12.25;;
40537;SDS011;27925;41.874;12.526;2022-12-18T02:10:00;18.90;;;14.18;;
40537;SDS011;27925;41.874;12.526;2022-12-18T02:15:16;22.42;;;13.77;;
40537;SDS011;27925;41.874;12.526;2022-12-18T02:17:55;21.25;;;14.25;;
40537;SDS011;27925;41.874;12.526;2022-12-18T02:20:34;22.63;;;13.93;;
40537;SDS011;27925;41.874;12.526;2022-12-18T02:25:53;18.60;;;12.98;;
40537;SDS011;27925;41.874;12.526;2022-12-18T02:28:44;19.85;;;14.30;;
40537;SDS011;27925;41.874;12.526;2022-12-18T02:31:43;20.65;;;14.40;;
40537;SDS011;27925;41.874;12.526;2022-12-18T02:34:15;21.23;;;14.43;;
40537;SDS011;27925;41.874;12.526;2022-12-18T02:36:43;18.10;;;14.18;;
40537;SDS011;27925;41.874;12.526;2022-12-18T02:39:11;23.95;;;15.10;;
40537;SDS011;27925;41.874;12.526;2022-12-18T02:41:38;19.88;;;13.43;;
40537;SDS011;27925;41.874;12.526;2022-12-18T02:44:11;18.30;;;13.50;;
40537;SDS011;27925;41.874;12.526;2022-12-18T02:57:50;19.70;;;13.25;;
40537;SDS011;27925;41.874;12.526;2022-12-18T03:00:22;19.90;;;13.65;;
40537;SDS011;27925;41.874;12.526;2022-12-18T03:02:56;19.88;;;13.55;;
40537;SDS011;27925;41.874;12.526;2022-12-18T03:05:39;19.42;;;13.48;;
40537;SDS011;27925;41.874;12.526;2022-12-18T03:08:18;16.05;;;10.35;;
40537;SDS011;27925;41.874;12.526;2022-12-18T03:11:09;18.47;;;13.27;;
40537;SDS011;27925;41.874;12.526;2022-12-18T03:13:39;20.75;;;13.43;;
40537;SDS011;27925;41.874;12.526;2022-12-18T03:16:22;19.95;;;13.05;;
40537;SDS011;27925;41.874;12.526;2022-12-18T03:18:52;20.00;;;13.15;;
40537;SDS011;27925;41.874;12.526;2022-12-18T03:21:24;21.38;;;14.32;;
40537;SDS011;27925;41.874;12.526;2022-12-18T03:23:53;20.45;;;12.77;;
40537;SDS011;27925;41.874;12.526;2022-12-18T03:26:21;17.88;;;12.70;;
40537;SDS011;27925;41.874;12.526;2022-12-18T03:28:52;19.48;;;13.45;;
40537;SDS011;27925;41.874;12.526;2022-12-18T03:31:22;19.45;;;12.77;;
40537;SDS011;27925;41.874;12.526;2022-12-18T03:34:09;17.33;;;12.80;;
40537;SDS011;27925;41.874;12.526;2022-12-18T03:36:40;18.00;;;12.25;;
40537;SDS011;27925;41.874;12.526;2022-12-18T03:39:06;19.42;;;11.90;;
40537;SDS011;27925;41.874;12.526;2022-12-18T03:41:33;20.85;;;12.55;;
40537;SDS011;27925;41.874;12.526;2022-12-18T03:52:30;20.52;;;12.05;;
40537;SDS011;27925;41.874;12.526;2022-12-18T03:55:01;17.05;;;12.00;;
40537;SDS011;27925;41.874;12.526;2022-12-18T03:57:29;17.30;;;11.93;;
40537;SDS011;27925;41.874;12.526;2022-12-18T04:00:08;20.25;;;12.32;;
40537;SDS011;27925;41.874;12.526;2022-12-18T04:02:37;18.00;;;12.98;;
40537;SDS011;27925;41.874;12.526;2022-12-18T04:05:06;16.83;;;12.13;;
40537;SDS011;27925;41.874;12.526;2022-12-18T04:07:33;17.55;;;12.48;;
40537;SDS011;27925;41.874;12.526;2022-12-18T04:09:59;17.42;;;12.68;;
40537;SDS011;27925;41.874;12.526;2022-12-18T04:12:28;19.05;;;12.75;;
40537;SDS011;27925;41.874;12.526;2022-12-18T04:14:55;17.17;;;13.02;;
40537;SDS011;27925;41.874;12.526;2022-12-18T04:17:21;18.33;;;12.93;;
40537;SDS011;27925;41.874;12.526;2022-12-18T04:19:47;22.10;;;13.73;;
40537;SDS011;27925;41.874;12.526;2022-12-18T04:22:13;16.75;;;12.15;;
40537;SDS011;27925;41.874;12.526;2022-12-18T04:24:39;18.63;;;13.38;;
40537;SDS011;27925;41.874;12.526;2022-12-18T04:27:06;16.70;;;12.98;;
40537;SDS011;27925;41.874;12.526;2022-12-18T04:29:32;20.10;;;13.43;;
40537;SDS011;27925;41.874;12.526;2022-12-18T04:31:57;18.35;;;13.48;;
40537;SDS011;27925;41.874;12.526;2022-12-18T04:34:23;16.75;;;12.23;;
40537;SDS011;27925;41.874;12.526;2022-12-18T04:36:49;18.88;;;12.80;;
40537;SDS011;27925;41.874;12.526;2022-12-18T04:39:15;19.92;;;13.15;;
40537;SDS011;27925;41.874;12.526;2022-12-18T04:41:40;17.42;;;12.40;;
40537;SDS011;27925;41.874;12.526;2022-12-18T04:44:06;18.52;;;12.32;;
40537;SDS011;27925;41.874;12.526;2022-12-18T04:46:32;17.85;;;11.90;;
40537;SDS011;27925;41.874;12.526;2022-12-18T04:48:57;15.73;;;11.70;;
40537;SDS011;27925;41.874;12.526;2022-12-18T04:51:23;16.42;;;12.50;;
40537;SDS011;27925;41.874;12.526;2022-12-18T04:53:49;15.63;;;11.88;;
40537;SDS011;27925;41.874;12.526;2022-12-18T04:56:15;15.85;;;12.38;;
40537;SDS011;27925;41.874;12.526;2022-12-18T04:58:42;18.25;;;12.07;;
40537;SDS011;27925;41.874;12.526;2022-12-18T05:01:09;15.38;;;11.45;;
40537;SDS011;27925;41.874;12.526;2022-12-18T05:03:37;15.38;;;11.75;;
40537;SDS011;27925;41.874;12.526;2022-12-18T05:06:03;15.80;;;11.70;;
40537;SDS011;27925;41.874;12.526;2022-12-18T05:08:30;18.77;;;11.38;;
40537;SDS011;27925;41.874;12.526;2022-12-18T05:11:00;17.63;;;11.50;;
40537;SDS011;27925;41.874;12.526;2022-12-18T05:13:27;16.15;;;11.18;;
40537;SDS011;27925;41.874;12.526;2022-12-18T05:15:53;18.48;;;11.07;;
40537;SDS011;27925;41.874;12.526;2022-12-18T05:18:20;16.00;;;10.60;;
40537;SDS011;27925;41.874;12.526;2022-12-18T05:20:46;16.17;;;10.85;;
40537;SDS011;27925;41.874;12.526;2022-12-18T05:23:12;13.95;;;10.18;;
40537;SDS011;27925;41.874;12.526;2022-12-18T05:25:38;15.93;;;9.95;;
40537;SDS011;27925;41.874;12.526;2022-12-18T05:28:04;17.70;;;10.80;;
40537;SDS011;27925;41.874;12.526;2022-12-18T05:30:29;16.40;;;9.65;;
40537;SDS011;27925;41.874;12.526;2022-12-18T05:32:55;16.33;;;10.60;;
40537;SDS011;27925;41.874;12.526;2022-12-18T05:35:21;15.73;;;10.38;;
40537;SDS011;27925;41.874;12.526;2022-12-18T05:37:46;12.82;;;9.52;;
40537;SDS011;27925;41.874;12.526;2022-12-18T05:40:12;17.92;;;9.68;;
40537;SDS011;27925;41.874;12.526;2022-12-18T05:42:38;14.10;;;9.93;;
40537;SDS011;27925;41.874;12.526;2022-12-18T05:45:04;13.65;;;10.07;;
40537;SDS011;27925;41.874;12.526;2022-12-18T05:47:31;15.15;;;9.13;;
40537;SDS011;27925;41.874;12.526;2022-12-18T05:49:56;15.73;;;9.13;;
40537;SDS011;27925;41.874;12.526;2022-12-18T05:52:22;14.77;;;10.13;;
40537;SDS011;27925;41.874;12.526;2022-12-18T05:54:48;16.23;;;9.30;;
40537;SDS011;27925;41.874;12.526;2022-12-18T05:57:14;14.68;;;9.05;;
40537;SDS011;27925;41.874;12.526;2022-12-18T05:59:40;13.07;;;9.23;;
40537;SDS011;27925;41.874;12.526;2022-12-18T06:02:05;12.52;;;9.25;;
40537;SDS011;27925;41.874;12.526;2022-12-18T06:04:31;11.93;;;8.68;;
40537;SDS011;27925;41.874;12.526;2022-12-18T06:06:57;14.75;;;8.52;;
40537;SDS011;27925;41.874;12.526;2022-12-18T06:09:24;16.35;;;8.70;;
40537;SDS011;27925;41.874;12.526;2022-12-18T06:11:51;12.68;;;8.63;;
40537;SDS011;27925;41.874;12.526;2022-12-18T06:14:17;13.13;;;8.05;;
40537;SDS011;27925;41.874;12.526;2022-12-18T06:16:43;12.27;;;8.15;;
40537;SDS011;27925;41.874;12.526;2022-12-18T06:19:14;10.45;;;8.20;;
40537;SDS011;27925;41.874;12.526;2022-12-18T06:21:40;12.00;;;8.13;;
40537;SDS011;27925;41.874;12.526;2022-12-18T06:24:06;12.48;;;7.78;;
40537;SDS011;27925;41.874;12.526;2022-12-18T06:26:32;12.95;;;7.78;;
40537;SDS011;27925;41.874;12.526;2022-12-18T06:28:58;12.60;;;7.30;;
40537;SDS011;27925;41.874;12.526;2022-12-18T06:31:24;10.88;;;7.18;;
40537;SDS011;27925;41.874;12.526;2022-12-18T06:33:50;11.90;;;7.65;;
40537;SDS011;27925;41.874;12.526;2022-12-18T06:36:16;11.85;;;7.35;;
40537;SDS011;27925;41.874;12.526;2022-12-18T06:38:42;14.45;;;6.53;;
40537;SDS011;27925;41.874;12.526;2022-12-18T06:41:09;9.57;;;6.20;;
40537;SDS011;27925;41.874;12.526;2022-12-18T06:43:40;9.68;;;6.28;;
40537;SDS011;27925;41.874;12.526;2022-12-18T06:46:06;12.60;;;6.07;;
40537;SDS011;27925;41.874;12.526;2022-12-18T06:48:32;13.90;;;7.22;;
40537;SDS011;27925;41.874;12.526;2022-12-18T06:50:58;9.77;;;6.50;;
40537;SDS011;27925;41.874;12.526;2022-12-18T06:53:24;13.80;;;6.10;;
40537;SDS011;27925;41.874;12.526;2022-12-18T06:55:50;9.63;;;5.50;;
40537;SDS011;27925;41.874;12.526;2022-12-18T06:58:16;10.35;;;5.45;;
40537;SDS011;27925;41.874;12.526;2022-12-18T07:00:42;11.55;;;5.85;;
40537;SDS011;27925;41.874;12.526;2022-12-18T07:03:08;7.68;;;5.47;;
40537;SDS011;27925;41.874;12.526;2022-12-18T07:05:33;9.88;;;5.90;;
40537;SDS011;27925;41.874;12.526;2022-12-18T07:07:59;10.40;;;5.95;;
40537;SDS011;27925;41.874;12.526;2022-12-18T07:10:25;10.40;;;5.40;;
40537;SDS011;27925;41.874;12.526;2022-12-18T07:12:51;10.45;;;5.55;;
40537;SDS011;27925;41.874;12.526;2022-12-18T07:15:16;10.80;;;5.60;;
40537;SDS011;27925;41.874;12.526;2022-12-18T07:17:42;7.45;;;5.07;;
40537;SDS011;27925;41.874;12.526;2022-12-18T07:20:08;11.15;;;5.68;;
40537;SDS011;27925;41.874;12.526;2022-12-18T07:22:34;9.25;;;5.45;;
40537;SDS011;27925;41.874;12.526;2022-12-18T07:25:00;8.90;;;4.93;;
40537;SDS011;27925;41.874;12.526;2022-12-18T07:27:26;10.13;;;5.00;;
40537;SDS011;27925;41.874;12.526;2022-12-18T07:29:51;8.85;;;4.90;;
40537;SDS011;27925;41.874;12.526;2022-12-18T07:32:17;7.57;;;5.20;;
40537;SDS011;27925;41.874;12.526;2022-12-18T07:34:43;9.63;;;4.95;;
40537;SDS011;27925;41.874;12.526;2022-12-18T07:37:09;8.13;;;5.53;;
40537;SDS011;27925;41.874;12.526;2022-12-18T07:39:34;9.43;;;5.75;;
40537;SDS011;27925;41.874;12.526;2022-12-18T07:42:00;10.98;;;5.97;;
40537;SDS011;27925;41.874;12.526;2022-12-18T07:47:10;11.27;;;5.68;;
40537;SDS011;27925;41.874;12.526;2022-12-18T07:49:35;10.23;;;5.75;;
40537;SDS011;27925;41.874;12.526;2022-12-18T07:52:01;11.20;;;6.13;;
40537;SDS011;27925;41.874;12.526;2022-12-18T07:54:27;10.25;;;6.10;;
40537;SDS011;27925;41.874;12.526;2022-12-18T07:56:52;13.63;;;6.57;;
40537;SDS011;27925;41.874;12.526;2022-12-18T07:59:18;12.68;;;6.82;;
40537;SDS011;27925;41.874;12.526;2022-12-18T08:01:44;9.45;;;6.40;;
40537;SDS011;27925;41.874;12.526;2022-12-18T08:04:10;9.40;;;5.88;;
40537;SDS011;27925;41.874;12.526;2022-12-18T08:06:35;21.63;;;6.80;;
40537;SDS011;27925;41.874;12.526;2022-12-18T08:09:01;13.38;;;6.28;;
40537;SDS011;27925;41.874;12.526;2022-12-18T08:11:27;13.25;;;6.30;;
40537;SDS011;27925;41.874;12.526;2022-12-18T08:13:53;9.27;;;6.05;;
40537;SDS011;27925;41.874;12.526;2022-12-18T08:16:20;10.30;;;6.45;;
40537;SDS011;27925;41.874;12.526;2022-12-18T08:18:47;11.15;;;6.30;;
40537;SDS011;27925;41.874;12.526;2022-12-18T08:21:15;12.25;;;6.85;;
40537;SDS011;27925;41.874;12.526;2022-12-18T08:23:46;14.55;;;8.60;;
40537;SDS011;27925;41.874;12.526;2022-12-18T08:26:13;11.75;;;8.48;;
40537;SDS011;27925;41.874;12.526;2022-12-18T08:28:39;14.45;;;6.95;;
40537;SDS011;27925;41.874;12.526;2022-12-18T08:31:05;10.70;;;6.53;;
40537;SDS011;27925;41.874;12.526;2022-12-18T08:33:31;14.27;;;7.38;;
40537;SDS011;27925;41.874;12.526;2022-12-18T08:35:58;19.02;;;10.73;;
40537;SDS011;27925;41.874;12.526;2022-12-18T08:38:25;12.15;;;6.88;;
40537;SDS011;27925;41.874;12.526;2022-12-18T08:40:58;11.93;;;5.95;;
40537;SDS011;27925;41.874;12.526;2022-12-18T08:43:25;9.20;;;6.10;;
40537;SDS011;27925;41.874;12.526;2022-12-18T08:48:34;9.50;;;6.18;;
40537;SDS011;27925;41.874;12.526;2022-12-18T08:51:00;9.57;;;5.43;;
40537;SDS011;27925;41.874;12.526;2022-12-18T08:53:27;9.93;;;5.82;;
40537;SDS011;27925;41.874;12.526;2022-12-18T08:55:53;10.45;;;6.18;;
40537;SDS011;27925;41.874;12.526;2022-12-18T08:58:18;13.63;;;6.90;;
40537;SDS011;27925;41.874;12.526;2022-12-18T09:00:44;9.30;;;6.00;;
40537;SDS011;27925;41.874;12.526;2022-12-18T09:03:14;10.65;;;6.07;;
40537;SDS011;27925;41.874;12.526;2022-12-18T09:05:42;11.40;;;6.22;;
40537;SDS011;27925;41.874;12.526;2022-12-18T09:08:08;9.60;;;5.97;;
40537;SDS011;27925;41.874;12.526;2022-12-18T09:10:34;9.95;;;5.75;;
40537;SDS011;27925;41.874;12.526;2022-12-18T09:13:06;11.20;;;5.65;;
40537;SDS011;27925;41.874;12.526;2022-12-18T09:15:31;13.25;;;6.43;;
40537;SDS011;27925;41.874;12.526;2022-12-18T09:17:57;8.48;;;5.97;;
40537;SDS011;27925;41.874;12.526;2022-12-18T09:20:23;11.35;;;6.03;;
40537;SDS011;27925;41.874;12.526;2022-12-18T09:22:49;12.65;;;5.95;;
40537;SDS011;27925;41.874;12.526;2022-12-18T09:25:15;8.95;;;5.47;;
40537;SDS011;27925;41.874;12.526;2022-12-18T09:27:40;11.07;;;5.20;;
40537;SDS011;27925;41.874;12.526;2022-12-18T09:30:06;10.00;;;5.40;;
40537;SDS011;27925;41.874;12.526;2022-12-18T09:32:33;8.65;;;5.13;;
40537;SDS011;27925;41.874;12.526;2022-12-18T09:34:58;7.40;;;4.82;;
40537;SDS011;27925;41.874;12.526;2022-12-18T09:37:24;10.52;;;5.50;;
40537;SDS011;27925;41.874;12.526;2022-12-18T09:39:50;10.32;;;5.70;;
40537;SDS011;27925;41.874;12.526;2022-12-18T09:42:20;13.35;;;5.10;;
40537;SDS011;27925;41.874;12.526;2022-12-18T09:44:50;7.63;;;4.40;;
40537;SDS011;27925;41.874;12.526;2022-12-18T09:47:28;11.88;;;4.70;;
40537;SDS011;27925;41.874;12.526;2022-12-18T09:50:01;7.30;;;4.15;;
40537;SDS011;27925;41.874;12.526;2022-12-18T09:52:41;13.48;;;5.03;;
40537;SDS011;27925;41.874;12.526;2022-12-18T09:55:13;7.85;;;4.85;;
40537;SDS011;27925;41.874;12.526;2022-12-18T09:57:49;7.93;;;4.20;;
40537;SDS011;27925;41.874;12.526;2022-12-18T10:00:21;9.65;;;4.10;;
40537;SDS011;27925;41.874;12.526;2022-12-18T10:02:53;10.20;;;5.18;;
40537;SDS011;27925;41.874;12.526;2022-12-18T10:05:32;13.73;;;4.65;;
40537;SDS011;27925;41.874;12.526;2022-12-18T10:13:23;8.27;;;3.90;;
40537;SDS011;27925;41.874;12.526;2022-12-18T10:27:17;9.45;;;3.97;;
40537;SDS011;27925;41.874;12.526;2022-12-18T10:29:46;8.55;;;4.72;;
40537;SDS011;27925;41.874;12.526;2022-12-18T10:32:19;9.60;;;4.25;;
40537;SDS011;27925;41.874;12.526;2022-12-18T10:34:51;12.55;;;4.97;;
40537;SDS011;27925;41.874;12.526;2022-12-18T10:37:19;11.63;;;4.80;;
40537;SDS011;27925;41.874;12.526;2022-12-18T10:40:04;10.77;;;6.25;;
40537;SDS011;27925;41.874;12.526;2022-12-18T10:42:39;10.48;;;5.00;;
40537;SDS011;27925;41.874;12.526;2022-12-18T10:47:41;9.32;;;5.18;;
40537;SDS011;27925;41.874;12.526;2022-12-18T10:50:18;8.55;;;4.20;;
40537;SDS011;27925;41.874;12.526;2022-12-18T10:52:59;9.98;;;5.00;;
40537;SDS011;27925;41.874;12.526;2022-12-18T10:55:31;6.95;;;3.97;;
40537;SDS011;27925;41.874;12.526;2022-12-18T10:58:12;8.88;;;4.60;;
40537;SDS011;27925;41.874;12.526;2022-12-18T11:06:19;10.23;;;3.30;;
40537;SDS011;27925;41.874;12.526;2022-12-18T11:09:00;8.80;;;3.78;;
40537;SDS011;27925;41.874;12.526;2022-12-18T11:11:26;6.00;;;2.80;;
40537;SDS011;27925;41.874;12.526;2022-12-18T11:14:06;7.65;;;3.47;;
40537;SDS011;27925;41.874;12.526;2022-12-18T11:16:44;8.05;;;4.03;;
40537;SDS011;27925;41.874;12.526;2022-12-18T11:21:51;6.85;;;2.88;;
40537;SDS011;27925;41.874;12.526;2022-12-18T11:24:22;7.75;;;3.45;;
40537;SDS011;27925;41.874;12.526;2022-12-18T11:27:02;6.50;;;3.40;;
40537;SDS011;27925;41.874;12.526;2022-12-18T11:29:34;8.98;;;4.10;;
40537;SDS011;27925;41.874;12.526;2022-12-18T11:38:04;9.60;;;3.35;;
40537;SDS011;27925;41.874;12.526;2022-12-18T11:41:01;8.50;;;3.03;;
40537;SDS011;27925;41.874;12.526;2022-12-18T11:46:33;5.70;;;2.80;;
40537;SDS011;27925;41.874;12.526;2022-12-18T11:54:14;6.85;;;2.63;;
40537;SDS011;27925;41.874;12.526;2022-12-18T12:05:05;7.03;;;2.63;;
40537;SDS011;27925;41.874;12.526;2022-12-18T12:18:56;5.07;;;2.42;;
40537;SDS011;27925;41.874;12.526;2022-12-18T12:21:42;5.55;;;2.50;;
40537;SDS011;27925;41.874;12.526;2022-12-18T12:32:22;4.65;;;2.10;;
40537;SDS011;27925;41.874;12.526;2022-12-18T12:37:55;5.25;;;1.95;;
40537;SDS011;27925;41.874;12.526;2022-12-18T12:40:47;8.63;;;3.30;;
40537;SDS011;27925;41.874;12.526;2022-12-18T12:43:22;12.75;;;6.43;;
40537;SDS011;27925;41.874;12.526;2022-12-18T12:45:54;6.75;;;2.88;;
40537;SDS011;27925;41.874;12.526;2022-12-18T12:50:50;8.15;;;3.33;;
40537;SDS011;27925;41.874;12.526;2022-12-18T12:53:21;4.38;;;2.00;;
40537;SDS011;27925;41.874;12.526;2022-12-18T12:55:54;4.93;;;2.55;;
40537;SDS011;27925;41.874;12.526;2022-12-18T12:58:35;5.97;;;2.58;;
40537;SDS011;27925;41.874;12.526;2022-12-18T13:09:05;5.35;;;2.53;;
40537;SDS011;27925;41.874;12.526;2022-12-18T13:11:37;6.40;;;2.05;;
40537;SDS011;27925;41.874;12.526;2022-12-18T13:14:34;7.30;;;2.13;;
40537;SDS011;27925;41.874;12.526;2022-12-18T13:19:42;5.97;;;2.65;;
40537;SDS011;27925;41.874;12.526;2022-12-18T13:22:25;5.72;;;2.40;;
40537;SDS011;27925;41.874;12.526;2022-12-18T13:24:56;6.20;;;2.50;;
40537;SDS011;27925;41.874;12.526;2022-12-18T13:38:20;6.22;;;2.80;;
40537;SDS011;27925;41.874;12.526;2022-12-18T13:40:57;8.23;;;2.20;;
40537;SDS011;27925;41.874;12.526;2022-12-18T13:43:26;5.15;;;2.10;;
40537;SDS011;27925;41.874;12.526;2022-12-18T13:48:59;6.78;;;2.40;;
40537;SDS011;27925;41.874;12.526;2022-12-18T13:51:25;9.25;;;2.80;;
40537;SDS011;27925;41.874;12.526;2022-12-18T13:54:17;5.60;;;2.00;;
40537;SDS011;27925;41.874;12.526;2022-12-18T13:57:04;8.85;;;2.30;;
40537;SDS011;27925;41.874;12.526;2022-12-18T13:59:49;8.18;;;2.33;;
40537;SDS011;27925;41.874;12.526;2022-12-18T14:02:17;3.83;;;2.00;;
40537;SDS011;27925;41.874;12.526;2022-12-18T14:04:46;6.65;;;2.30;;
40537;SDS011;27925;41.874;12.526;2022-12-18T14:09:47;5.05;;;2.10;;
40537;SDS011;27925;41.874;12.526;2022-12-18T14:12:32;5.40;;;2.30;;
40537;SDS011;27925;41.874;12.526;2022-12-18T14:18:02;8.00;;;2.83;;
40537;SDS011;27925;41.874;12.526;2022-12-18T14:20:39;4.90;;;2.33;;
40537;SDS011;27925;41.874;12.526;2022-12-18T14:23:24;6.85;;;3.03;;
40537;SDS011;27925;41.874;12.526;2022-12-18T14:25:59;7.20;;;2.83;;
40537;SDS011;27925;41.874;12.526;2022-12-18T14:28:26;6.10;;;2.47;;
40537;SDS011;27925;41.874;12.526;2022-12-18T14:30:53;4.95;;;1.92;;
40537;SDS011;27925;41.874;12.526;2022-12-18T14:33:21;6.38;;;2.35;;
40537;SDS011;27925;41.874;12.526;2022-12-18T14:35:58;6.38;;;2.50;;
40537;SDS011;27925;41.874;12.526;2022-12-18T14:38:35;4.85;;;1.95;;
40537;SDS011;27925;41.874;12.526;2022-12-18T14:43:39;6.00;;;2.00;;
40537;SDS011;27925;41.874;12.526;2022-12-18T14:46:28;7.78;;;2.33;;
40537;SDS011;27925;41.874;12.526;2022-12-18T14:48:58;5.78;;;2.95;;
40537;SDS011;27925;41.874;12.526;2022-12-18T14:51:33;5.75;;;2.70;;
40537;SDS011;27925;41.874;12.526;2022-12-18T14:54:00;7.60;;;2.30;;
40537;SDS011;27925;41.874;12.526;2022-12-18T14:59:03;5.63;;;2.20;;
40537;SDS011;27925;41.874;12.526;2022-12-18T15:04:32;7.35;;;2.40;;
40537;SDS011;27925;41.874;12.526;2022-12-18T15:09:35;5.75;;;2.58;;
40537;SDS011;27925;41.874;12.526;2022-12-18T15:12:02;6.88;;;2.00;;
40537;SDS011;27925;41.874;12.526;2022-12-18T15:14:32;4.07;;;2.05;;
40537;SDS011;27925;41.874;12.526;2022-12-18T15:17:03;4.40;;;2.38;;
40537;SDS011;27925;41.874;12.526;2022-12-18T15:19:41;6.78;;;2.40;;
40537;SDS011;27925;41.874;12.526;2022-12-18T15:22:27;6.78;;;2.35;;
40537;SDS011;27925;41.874;12.526;2022-12-18T15:25:00;5.20;;;2.67;;
40537;SDS011;27925;41.874;12.526;2022-12-18T15:27:29;7.57;;;2.95;;
40537;SDS011;27925;41.874;12.526;2022-12-18T15:32:26;9.52;;;2.60;;
40537;SDS011;27925;41.874;12.526;2022-12-18T15:35:01;5.72;;;2.05;;
40537;SDS011;27925;41.874;12.526;2022-12-18T15:37:47;5.25;;;2.80;;
40537;SDS011;27925;41.874;12.526;2022-12-18T15:40:17;9.40;;;3.60;;
40537;SDS011;27925;41.874;12.526;2022-12-18T15:42:49;8.45;;;3.63;;
40537;SDS011;27925;41.874;12.526;2022-12-18T15:45:37;6.57;;;3.30;;
40537;SDS011;27925;41.874;12.526;2022-12-18T15:48:09;8.18;;;3.35;;
40537;SDS011;27925;41.874;12.526;2022-12-18T15:50:43;6.15;;;2.50;;
40537;SDS011;27925;41.874;12.526;2022-12-18T15:53:08;10.65;;;4.00;;
40537;SDS011;27925;41.874;12.526;2022-12-18T15:55:34;6.15;;;2.80;;
40537;SDS011;27925;41.874;12.526;2022-12-18T16:00:45;8.23;;;3.03;;
40537;SDS011;27925;41.874;12.526;2022-12-18T16:03:10;5.97;;;2.95;;
40537;SDS011;27925;41.874;12.526;2022-12-18T16:05:36;10.70;;;3.53;;
40537;SDS011;27925;41.874;12.526;2022-12-18T16:08:02;6.30;;;3.28;;
40537;SDS011;27925;41.874;12.526;2022-12-18T16:10:28;6.80;;;3.20;;
40537;SDS011;27925;41.874;12.526;2022-12-18T16:12:54;7.47;;;3.50;;
40537;SDS011;27925;41.874;12.526;2022-12-18T16:15:20;6.88;;;3.55;;
40537;SDS011;27925;41.874;12.526;2022-12-18T16:17:45;10.07;;;4.13;;
40537;SDS011;27925;41.874;12.526;2022-12-18T16:20:16;9.32;;;4.70;;
40537;SDS011;27925;41.874;12.526;2022-12-18T16:22:44;10.02;;;4.47;;
40537;SDS011;27925;41.874;12.526;2022-12-18T16:25:22;7.88;;;4.53;;
40537;SDS011;27925;41.874;12.526;2022-12-18T16:27:51;10.32;;;5.00;;
40537;SDS011;27925;41.874;12.526;2022-12-18T16:30:18;14.63;;;5.30;;
40537;SDS011;27925;41.874;12.526;2022-12-18T16:32:46;8.73;;;4.80;;
40537;SDS011;27925;41.874;12.526;2022-12-18T16:35:12;16.00;;;6.07;;
40537;SDS011;27925;41.874;12.526;2022-12-18T16:37:39;13.82;;;8.80;;
40537;SDS011;27925;41.874;12.526;2022-12-18T16:40:07;15.95;;;9.00;;
40537;SDS011;27925;41.874;12.526;2022-12-18T16:42:37;16.50;;;10.65;;
40537;SDS011;27925;41.874;12.526;2022-12-18T16:45:05;13.82;;;10.52;;
40537;SDS011;27925;41.874;12.526;2022-12-18T16:47:32;17.33;;;10.45;;
40537;SDS011;27925;41.874;12.526;2022-12-18T16:49:58;18.77;;;9.40;;
40537;SDS011;27925;41.874;12.526;2022-12-18T16:52:24;16.20;;;9.32;;
40537;SDS011;27925;41.874;12.526;2022-12-18T16:54:50;16.83;;;8.80;;
40537;SDS011;27925;41.874;12.526;2022-12-18T16:57:17;12.10;;;8.00;;
40537;SDS011;27925;41.874;12.526;2022-12-18T16:59:44;13.82;;;8.13;;
40537;SDS011;27925;41.874;12.526;2022-12-18T17:02:15;15.80;;;8.88;;
40537;SDS011;27925;41.874;12.526;2022-12-18T17:04:42;13.43;;;8.25;;
40537;SDS011;27925;41.874;12.526;2022-12-18T17:07:09;17.33;;;8.45;;
40537;SDS011;27925;41.874;12.526;2022-12-18T17:09:35;13.00;;;8.18;;
40537;SDS011;27925;41.874;12.526;2022-12-18T17:12:02;13.57;;;8.15;;